Toney, Alabama
Current Conditions -  °F | °C
As of 8:55 AM on Monday 22 Dec 2014 (Local Time) from KMDQ Reporting Station
Overcast Overcast  
Wind Chill: 44°   Ceiling: 1200
Heat Index: 48°   Visibility: 10mi
Dew Point: 41°   Wind: 9mph
Humidity: 76%   Direction: 140°SE
Pressure: 29.94"   Gusts: NA
Location:  34.9°N, 86.73°W
Report Text: KMDQ 221455Z AUTO 14008KT 10SM OVC012 09/05 A2994 RMK AO2
Loading
Personal Weather Stations






























Interactive Weather Map New forecast layout! Learn more

10-Day Weather Forecast

Advertisements
Track Severe Weather on mobile